createdAt,value
2018-02-09T11:29:21.232Z,74.83
2018-02-09T11:31:49.672Z,67.33
2018-02-09T11:34:20.029Z,65.67
2018-02-09T11:36:48.475Z,66.50
2018-02-09T11:39:18.023Z,69.73
2018-02-09T11:41:47.903Z,67.80
2018-02-09T11:44:15.775Z,67.97
2018-02-09T11:46:43.939Z,67.00
2018-02-09T11:49:12.477Z,70.73
2018-02-09T11:51:40.011Z,66.50
2018-02-09T11:54:07.938Z,62.55
2018-02-09T11:56:35.486Z,71.50
2018-02-09T11:59:03.019Z,72.90
2018-02-09T12:01:30.570Z,71.57
2018-02-09T12:03:58.092Z,71.27
2018-02-09T12:06:25.735Z,68.03
2018-02-09T12:08:53.251Z,65.43
2018-02-09T12:11:20.815Z,68.27
2018-02-09T12:13:48.325Z,65.97
2018-02-09T12:16:15.933Z,69.62
2018-02-09T12:18:43.519Z,66.23
2018-02-09T12:21:11.031Z,65.27
2018-02-09T12:23:38.591Z,67.57
2018-02-09T12:26:06.201Z,79.77
2018-02-09T12:28:33.738Z,76.20
2018-02-09T12:31:01.247Z,75.90
2018-02-09T12:33:28.978Z,68.50
2018-02-09T12:35:56.577Z,62.80
2018-02-09T12:38:24.169Z,77.23
2018-02-09T12:40:52.075Z,72.20
2018-02-09T12:43:19.920Z,72.53
2018-02-09T12:45:47.486Z,65.53
2018-02-09T12:48:17.188Z,72.18
2018-02-09T12:50:44.719Z,72.30
2018-02-09T12:53:12.323Z,67.03
2018-02-09T12:55:39.866Z,72.73
2018-02-09T12:58:08.151Z,68.03
2018-02-09T13:00:35.723Z,75.93
2018-02-09T13:03:03.250Z,75.87
2018-02-09T13:05:30.819Z,76.60
2018-02-09T13:07:58.405Z,71.83
2018-02-09T13:10:26.062Z,74.43
2018-02-09T13:13:06.018Z,67.63
2018-02-09T13:15:33.645Z,65.80
2018-02-09T13:18:01.513Z,70.65
2018-02-09T13:20:31.925Z,68.00
2018-02-09T13:23:11.398Z,65.47
2018-02-09T13:25:38.966Z,66.07
2018-02-09T13:28:06.490Z,78.77
2018-02-09T13:30:34.179Z,80.67
2018-02-09T13:36:06.450Z,76.87
2018-02-09T13:38:33.982Z,77.47
2018-02-09T13:41:02.239Z,69.60
2018-02-09T13:43:30.811Z,74.97
2018-02-09T13:45:58.367Z,73.65
2018-02-09T13:48:25.920Z,67.03
2018-02-09T13:50:54.739Z,69.83
2018-02-09T13:53:22.427Z,59.88
2018-02-09T13:55:49.948Z,65.43
2018-02-09T13:58:17.771Z,61.70
2018-02-09T14:00:45.347Z,57.70
2018-02-09T14:03:12.906Z,63.42
2018-02-09T14:05:40.931Z,62.13
2018-02-09T14:08:08.630Z,60.35
2018-02-09T14:10:38.515Z,63.93
2018-02-09T14:13:06.074Z,59.67
2018-02-09T14:15:33.617Z,63.90
2018-02-09T14:18:01.223Z,68.57
2018-02-09T14:20:30.239Z,68.10
2018-02-09T14:22:57.943Z,62.90
2018-02-09T14:25:26.222Z,60.58
2018-02-09T14:27:53.827Z,61.93
2018-02-09T14:30:22.227Z,58.10
2018-02-09T14:32:49.758Z,56.53
2018-02-09T14:35:17.331Z,54.03
2018-02-09T14:37:46.319Z,57.27
2018-02-09T14:40:13.889Z,52.37
2018-02-09T14:42:41.418Z,51.92
2018-02-09T14:45:09.544Z,49.60
2018-02-09T14:47:37.053Z,54.83
2018-02-09T14:50:04.599Z,50.60
2018-02-09T14:52:32.224Z,45.67
2018-02-09T14:55:01.165Z,53.87
2018-02-09T14:57:31.768Z,53.37
2018-02-09T14:59:59.535Z,56.47
2018-02-09T15:02:27.081Z,51.60
2018-02-09T15:04:54.610Z,48.23
2018-02-09T15:07:22.166Z,53.73
2018-02-09T15:09:49.686Z,53.13
2018-02-09T15:12:17.264Z,59.10
2018-02-09T15:14:44.799Z,55.07
2018-02-09T15:17:12.376Z,61.17
2018-02-09T15:19:39.926Z,55.33
2018-02-09T15:22:07.573Z,68.23
2018-02-09T15:24:35.329Z,55.07
2018-02-09T15:27:02.857Z,56.43
2018-02-09T15:29:30.456Z,56.40
2018-02-09T15:31:58.086Z,53.70
2018-02-09T15:34:25.639Z,51.37
2018-02-09T15:36:53.165Z,50.40
2018-02-09T15:39:20.746Z,55.70
2018-02-09T15:41:48.270Z,62.83
2018-02-09T15:44:19.992Z,55.27
2018-02-09T15:46:47.515Z,57.87
2018-02-09T15:49:15.078Z,52.57
2018-02-09T15:51:42.604Z,61.33
2018-02-09T15:54:10.707Z,58.05
2018-02-09T15:56:39.361Z,54.37
2018-02-09T15:59:07.482Z,53.83
2018-02-09T16:01:35.208Z,50.80
2018-02-09T16:04:02.738Z,58.00
2018-02-09T16:06:30.295Z,53.83
2018-02-09T16:08:58.319Z,55.73
2018-02-09T16:11:26.274Z,58.00
2018-02-09T16:13:53.827Z,57.70
2018-02-09T16:16:21.413Z,55.17
2018-02-09T16:18:48.947Z,58.53
2018-02-09T16:21:16.548Z,57.13
2018-02-09T16:23:44.950Z,57.13
2018-02-09T16:26:14.256Z,57.67
2018-02-09T16:28:42.813Z,57.27
2018-02-09T16:31:14.674Z,59.92
2018-02-09T16:33:48.391Z,50.60
2018-02-09T16:36:19.251Z,53.80
2018-02-09T16:38:50.293Z,55.50
2018-02-09T16:41:19.023Z,58.83
2018-02-09T16:43:49.020Z,52.22
2018-02-09T16:46:17.306Z,59.72
2018-02-09T16:48:47.501Z,54.30
2018-02-09T16:51:17.563Z,57.33
2018-02-09T16:53:45.410Z,59.22
2018-02-09T16:56:13.624Z,57.70
2018-02-09T16:58:41.896Z,61.20
2018-02-09T17:01:11.663Z,58.67
2018-02-09T17:03:42.632Z,57.83
2018-02-09T17:06:11.675Z,55.60
2018-02-09T17:08:41.953Z,66.20
2018-02-09T17:11:09.627Z,60.23
2018-02-09T17:13:37.335Z,64.87
2018-02-09T17:16:05.298Z,65.17
2018-02-09T17:18:33.764Z,68.10
2018-02-09T17:21:01.412Z,66.40
2018-02-09T17:23:31.240Z,71.83
2018-02-09T17:25:59.006Z,66.57
2018-02-09T17:28:29.064Z,64.57
2018-02-09T17:31:01.597Z,70.12
2018-02-09T17:33:32.319Z,63.70
2018-02-09T17:36:05.157Z,68.60
2018-02-09T17:38:33.003Z,65.87
2018-02-09T17:41:04.273Z,65.83
2018-02-09T17:43:32.236Z,70.85
2018-02-09T17:45:59.810Z,68.55
2018-02-09T17:48:27.423Z,69.30
2018-02-09T17:50:54.940Z,65.30
2018-02-09T17:53:22.515Z,67.17
2018-02-09T17:55:50.042Z,72.43
2018-02-09T17:58:17.652Z,63.00
2018-02-09T18:00:45.372Z,63.70
2018-02-09T18:03:13.304Z,68.97
2018-02-09T18:05:42.307Z,73.97
2018-02-09T18:08:10.939Z,67.20
2018-02-09T18:10:40.666Z,64.63
2018-02-09T18:13:08.751Z,72.87
2018-02-09T18:15:38.413Z,73.27
2018-02-09T18:18:06.040Z,66.07
2018-02-09T18:20:35.445Z,69.93
2018-02-09T18:23:05.906Z,69.93
2018-02-09T18:25:33.504Z,62.73
2018-02-09T18:28:00.999Z,69.97
2018-02-09T18:30:28.573Z,70.30
2018-02-09T18:32:56.102Z,81.40
2018-02-09T18:35:23.651Z,63.37
2018-02-09T18:37:51.204Z,69.07
2018-02-09T18:40:18.910Z,67.97
2018-02-09T18:42:46.511Z,64.53
2018-02-09T18:45:14.277Z,72.90
2018-02-09T18:47:42.040Z,69.50
2018-02-09T18:50:09.667Z,75.43
2018-02-09T18:52:37.342Z,73.23
2018-02-09T18:55:05.038Z,82.57
2018-02-09T18:57:32.598Z,77.97
2018-02-09T19:00:00.158Z,77.82
2018-02-09T19:02:27.690Z,81.83
2018-02-09T19:04:55.207Z,82.93
2018-02-09T19:07:23.887Z,71.07
2018-02-09T19:09:51.991Z,85.53
2018-02-09T19:12:19.541Z,85.53
2018-02-09T19:14:47.334Z,86.93
2018-02-09T19:17:15.054Z,87.13
2018-02-09T19:19:43.220Z,87.93
2018-02-09T19:22:12.765Z,95.40
2018-02-09T19:24:41.494Z,85.75
2018-02-09T19:27:12.251Z,88.37
2018-02-09T19:29:39.978Z,93.67
2018-02-09T19:32:07.504Z,96.67
2018-02-09T19:34:35.117Z,94.53
2018-02-09T19:37:03.082Z,89.73
2018-02-09T19:39:31.158Z,96.23
2018-02-09T19:41:59.324Z,85.40
2018-02-09T19:44:28.067Z,80.67
2018-02-09T19:46:56.275Z,85.70
2018-02-09T19:49:23.802Z,79.60
2018-02-09T19:51:52.020Z,91.33
2018-02-09T19:54:19.751Z,91.33
2018-02-09T19:56:47.837Z,90.03
2018-02-09T19:59:16.294Z,89.23
2018-02-09T20:01:44.185Z,84.33
2018-02-09T20:04:11.940Z,88.63
2018-02-09T20:06:39.537Z,81.30
2018-02-09T20:09:07.118Z,75.30
2018-02-09T20:11:35.024Z,92.80
2018-02-09T20:14:02.574Z,93.43
2018-02-09T20:16:30.096Z,84.63
2018-02-09T20:18:57.648Z,93.57
2018-02-09T20:21:25.451Z,89.03
2018-02-09T20:23:53.622Z,99.20
2018-02-09T20:26:21.211Z,102.23
2018-02-09T20:28:50.804Z,107.33
2018-02-09T20:31:19.724Z,86.33
2018-02-09T20:33:47.725Z,90.07
2018-02-09T20:36:15.544Z,93.17
2018-02-09T20:38:46.636Z,107.00
2018-02-09T20:41:14.872Z,95.07
2018-02-09T20:43:44.727Z,87.35
2018-02-09T20:46:12.798Z,83.00
2018-02-09T20:48:42.344Z,92.87
2018-02-09T20:51:13.401Z,82.20
2018-02-09T20:53:42.081Z,86.95
2018-02-09T20:56:10.384Z,89.93
2018-02-09T20:58:40.231Z,90.33
2018-02-09T21:01:08.508Z,86.13
2018-02-09T21:03:38.186Z,84.03
2018-02-09T21:06:10.620Z,87.13
2018-02-09T21:08:40.555Z,78.23
2018-02-09T21:11:10.213Z,78.63
2018-02-09T21:13:39.150Z,84.87
2018-02-09T21:16:06.703Z,92.00
2018-02-09T21:18:36.631Z,90.10
2018-02-09T21:21:06.789Z,99.10
2018-02-09T21:23:35.679Z,85.37
2018-02-09T21:26:05.315Z,85.57
2018-02-09T21:28:34.256Z,83.60
2018-02-09T21:31:04.328Z,96.22
2018-02-09T21:33:33.694Z,88.33
2018-02-09T21:36:05.105Z,94.00
2018-02-09T21:38:36.148Z,90.68
2018-02-09T21:41:04.726Z,89.47
2018-02-09T21:43:32.471Z,87.57
2018-02-09T21:46:01.354Z,96.23
2018-02-09T21:48:31.621Z,81.80
2018-02-09T21:51:04.006Z,86.33
2018-02-09T21:53:34.685Z,98.17
2018-02-09T21:56:05.487Z,98.93
2018-02-09T21:58:34.036Z,85.23
2018-02-09T22:01:02.190Z,90.90
2018-02-09T22:03:32.595Z,103.13
2018-02-09T22:06:00.349Z,98.90
2018-02-09T22:08:29.354Z,101.55
2018-02-09T22:10:57.610Z,104.57
2018-02-09T22:13:25.724Z,90.63
2018-02-09T22:15:54.621Z,101.80
2018-02-09T22:18:22.223Z,107.50
2018-02-09T22:20:50.372Z,93.10
2018-02-09T22:23:18.524Z,87.77
2018-02-09T22:25:46.115Z,104.20
2018-02-09T22:28:14.730Z,121.27
2018-02-09T22:30:42.319Z,123.67
2018-02-09T22:33:10.534Z,139.30
2018-02-09T22:35:39.980Z,104.40
2018-02-09T22:38:08.435Z,108.47
2018-02-09T22:40:39.406Z,95.15
2018-02-09T22:43:07.884Z,91.28
2018-02-09T22:45:35.996Z,99.93
2018-02-09T22:48:03.585Z,89.53
2018-02-09T22:50:33.403Z,95.93
2018-02-09T22:53:01.393Z,88.35
2018-02-09T22:55:29.857Z,97.20
2018-02-09T22:57:59.954Z,86.17
2018-02-09T23:00:28.472Z,97.40
2018-02-09T23:02:57.902Z,92.83
2018-02-09T23:05:26.895Z,92.87
2018-02-09T23:07:56.249Z,85.20
2018-02-09T23:10:26.257Z,85.97
2018-02-09T23:12:54.833Z,77.63
2018-02-09T23:15:22.762Z,74.10
2018-02-09T23:17:51.863Z,86.23
2018-02-09T23:20:21.467Z,103.17
2018-02-09T23:22:51.977Z,76.80
2018-02-09T23:25:19.694Z,81.10
2018-02-09T23:27:47.375Z,69.23
2018-02-09T23:30:21.482Z,70.60
2018-02-09T23:32:50.128Z,87.27
2018-02-09T23:35:20.858Z,70.53
2018-02-09T23:37:49.780Z,60.03
2018-02-09T23:40:19.483Z,60.47
2018-02-09T23:42:48.212Z,53.72
2018-02-09T23:45:16.887Z,49.03
2018-02-09T23:47:46.331Z,52.93
2018-02-09T23:50:17.557Z,53.80
2018-02-09T23:52:47.654Z,53.92
2018-02-09T23:55:16.874Z,65.57
2018-02-09T23:57:44.552Z,65.60
